createdAt,value
2018-06-29T00:00:25.550Z,999.16
2018-06-29T00:01:32.111Z,999.16
2018-06-29T00:02:39.648Z,999.14
2018-06-29T00:03:45.190Z,999.18
2018-06-29T00:04:51.744Z,999.20
2018-06-29T00:05:58.303Z,999.16
2018-06-29T00:07:04.835Z,999.14
2018-06-29T00:08:11.379Z,999.13
2018-06-29T00:09:17.929Z,999.16
2018-06-29T00:10:24.478Z,999.15
2018-06-29T00:11:31.037Z,999.18
2018-06-29T00:12:37.577Z,999.13
2018-06-29T00:13:44.128Z,999.16
2018-06-29T00:14:50.672Z,999.16
2018-06-29T00:15:57.219Z,999.16
2018-06-29T00:17:03.781Z,999.16
2018-06-29T00:18:10.324Z,999.15
2018-06-29T00:19:16.874Z,999.18
2018-06-29T00:20:23.414Z,999.15
2018-06-29T00:21:29.984Z,999.18
2018-06-29T00:22:36.521Z,999.16
2018-06-29T00:23:43.073Z,999.18
2018-06-29T00:24:49.613Z,999.16
2018-06-29T00:25:56.163Z,999.19
2018-06-29T00:27:02.724Z,999.16
2018-06-29T00:28:09.264Z,999.14
2018-06-29T00:29:15.905Z,999.16
2018-06-29T00:30:22.360Z,999.17
2018-06-29T00:31:28.922Z,999.17
2018-06-29T00:32:35.474Z,999.17
2018-06-29T00:33:42.020Z,999.17
2018-06-29T00:34:48.557Z,999.17
2018-06-29T00:35:55.110Z,999.21
2018-06-29T00:37:01.660Z,999.10
2018-06-29T00:38:08.218Z,999.12
2018-06-29T00:39:14.755Z,999.07
2018-06-29T00:40:21.306Z,999.15
2018-06-29T00:41:27.846Z,999.12
2018-06-29T00:42:34.409Z,999.13
2018-06-29T00:43:40.962Z,999.13
2018-06-29T00:44:47.644Z,999.10
2018-06-29T00:45:54.057Z,999.11
2018-06-29T00:47:00.605Z,999.13
2018-06-29T00:48:07.154Z,999.11
2018-06-29T00:49:13.707Z,999.14
2018-06-29T00:50:20.246Z,999.11
2018-06-29T00:51:26.792Z,999.09
2018-06-29T00:52:33.353Z,999.13
2018-06-29T00:53:39.907Z,999.10
2018-06-29T00:54:46.441Z,999.12
2018-06-29T00:55:52.990Z,999.09
2018-06-29T00:56:59.534Z,999.13
2018-06-29T00:58:06.093Z,999.10
2018-06-29T00:59:12.640Z,999.10
2018-06-29T01:00:19.177Z,999.12
2018-06-29T01:01:25.732Z,999.09
2018-06-29T01:02:32.277Z,999.19
2018-06-29T01:03:38.816Z,999.18
2018-06-29T01:04:45.366Z,999.14
2018-06-29T01:05:51.915Z,999.12
2018-06-29T01:06:58.475Z,999.15
2018-06-29T01:08:05.033Z,999.18
2018-06-29T01:09:11.572Z,999.17
2018-06-29T01:10:18.112Z,999.17
2018-06-29T01:11:24.670Z,999.18
2018-06-29T01:12:31.214Z,999.17
2018-06-29T01:13:37.755Z,999.23
2018-06-29T01:14:44.302Z,999.22
2018-06-29T01:15:50.860Z,999.22
2018-06-29T01:16:57.409Z,999.20
2018-06-29T01:18:03.961Z,999.25
2018-06-29T01:19:10.507Z,999.24
2018-06-29T01:20:17.044Z,999.23
2018-06-29T01:21:23.591Z,999.18
2018-06-29T01:22:30.138Z,999.20
2018-06-29T01:23:36.691Z,999.20
2018-06-29T01:24:43.243Z,999.19
2018-06-29T01:25:49.782Z,999.23
2018-06-29T01:26:56.342Z,999.21
2018-06-29T01:28:02.888Z,999.27
2018-06-29T01:29:09.449Z,999.28
2018-06-29T01:30:15.981Z,999.29
2018-06-29T01:31:22.524Z,999.32
2018-06-29T01:32:29.071Z,999.32
2018-06-29T01:33:35.625Z,999.31
2018-06-29T01:34:43.168Z,999.27
2018-06-29T01:35:48.707Z,999.26
2018-06-29T01:36:55.264Z,999.30
2018-06-29T01:38:01.893Z,999.27
2018-06-29T01:39:08.351Z,999.25
2018-06-29T01:40:14.905Z,999.30
2018-06-29T01:41:21.491Z,999.27
2018-06-29T01:42:27.977Z,999.26
2018-06-29T01:43:34.712Z,999.29
2018-06-29T01:44:41.066Z,999.27
2018-06-29T01:45:47.599Z,999.24
2018-06-29T01:46:54.143Z,999.28
2018-06-29T01:48:00.690Z,999.27
2018-06-29T01:49:07.247Z,999.26
2018-06-29T01:50:13.767Z,999.26
2018-06-29T01:51:20.302Z,999.29
2018-06-29T01:52:27.150Z,999.31
2018-06-29T01:53:33.387Z,999.27
2018-06-29T01:54:39.922Z,999.27
2018-06-29T01:55:46.459Z,999.32
2018-06-29T01:56:52.996Z,999.26
2018-06-29T01:57:59.546Z,999.25
2018-06-29T01:59:06.069Z,999.29
2018-06-29T02:00:12.610Z,999.18
2018-06-29T02:01:19.133Z,999.25
2018-06-29T02:02:25.672Z,999.21
2018-06-29T02:03:32.209Z,999.23
2018-06-29T02:04:38.749Z,999.19
2018-06-29T02:05:45.567Z,999.21
2018-06-29T02:06:51.802Z,999.24
2018-06-29T02:07:58.373Z,999.22
2018-06-29T02:09:04.869Z,999.21
2018-06-29T02:10:11.389Z,999.20
2018-06-29T02:11:17.916Z,999.21
2018-06-29T02:12:24.436Z,999.18
2018-06-29T02:13:31.964Z,999.17
2018-06-29T02:14:37.506Z,999.17
2018-06-29T02:15:44.035Z,999.15
2018-06-29T02:16:50.568Z,999.14
2018-06-29T02:17:57.093Z,999.15
2018-06-29T02:19:03.623Z,999.09
2018-06-29T02:20:10.153Z,999.13
2018-06-29T02:21:16.677Z,999.08
2018-06-29T02:22:23.205Z,999.12
2018-06-29T02:23:29.749Z,999.00
2018-06-29T02:24:36.278Z,999.02
2018-06-29T02:25:42.895Z,999.00
2018-06-29T02:26:49.326Z,999.02
2018-06-29T02:27:55.856Z,998.98
2018-06-29T02:29:02.387Z,998.98
2018-06-29T02:30:08.906Z,999.03
2018-06-29T02:31:15.442Z,998.95
2018-06-29T02:32:21.951Z,999.01
2018-06-29T02:33:28.477Z,998.98
2018-06-29T02:34:36.013Z,999.02
2018-06-29T02:35:41.537Z,999.04
2018-06-29T02:36:48.054Z,998.91
2018-06-29T02:37:54.577Z,998.98
2018-06-29T02:39:01.121Z,998.98
2018-06-29T02:40:07.632Z,998.98
2018-06-29T02:41:14.158Z,998.89
2018-06-29T02:42:20.658Z,998.91
2018-06-29T02:43:27.192Z,998.92
2018-06-29T02:44:33.702Z,998.90
2018-06-29T02:45:40.232Z,998.90
2018-06-29T02:46:46.756Z,998.84
2018-06-29T02:47:53.257Z,998.88
2018-06-29T02:48:59.779Z,998.88
2018-06-29T02:50:07.294Z,998.90
2018-06-29T02:51:12.911Z,998.88
2018-06-29T02:52:19.328Z,998.84
2018-06-29T02:53:25.843Z,998.90
2018-06-29T02:54:32.365Z,998.89
2018-06-29T02:55:38.893Z,998.91
2018-06-29T02:56:45.386Z,998.87
2018-06-29T02:57:51.903Z,998.92
2018-06-29T02:58:58.406Z,998.90
2018-06-29T03:00:04.909Z,998.91
2018-06-29T03:01:11.437Z,998.90
2018-06-29T03:02:17.930Z,998.90
2018-06-29T03:03:24.454Z,998.92
2018-06-29T03:04:30.959Z,998.91
2018-06-29T03:05:37.483Z,998.94
2018-06-29T03:06:44.003Z,998.95
2018-06-29T03:07:50.509Z,998.96
2018-06-29T03:08:57.020Z,998.96
2018-06-29T03:10:03.526Z,998.99
2018-06-29T03:11:10.049Z,999.02
2018-06-29T03:12:16.547Z,998.99
2018-06-29T03:13:23.059Z,999.01
2018-06-29T03:14:29.585Z,999.00
2018-06-29T03:15:36.092Z,999.03
2018-06-29T03:16:42.614Z,999.02
2018-06-29T03:17:49.119Z,999.03
2018-06-29T03:18:55.624Z,999.01
2018-06-29T03:20:02.140Z,999.02
2018-06-29T03:21:08.657Z,998.94
2018-06-29T03:22:15.649Z,999.01
2018-06-29T03:23:21.664Z,999.03
2018-06-29T03:24:28.185Z,998.97
2018-06-29T03:25:34.698Z,998.99
2018-06-29T03:26:41.206Z,998.97
2018-06-29T03:27:47.707Z,998.97
2018-06-29T03:28:54.224Z,998.96
2018-06-29T03:30:00.735Z,998.97
2018-06-29T03:31:07.260Z,998.98
2018-06-29T03:32:13.759Z,999.00
2018-06-29T03:33:20.281Z,999.00
2018-06-29T03:34:26.886Z,999.03
2018-06-29T03:35:33.303Z,999.03
2018-06-29T03:36:39.832Z,998.96
2018-06-29T03:37:46.333Z,999.01
2018-06-29T03:38:52.849Z,998.98
2018-06-29T03:39:59.356Z,998.95
2018-06-29T03:41:06.385Z,998.95
2018-06-29T03:42:12.398Z,998.97
2018-06-29T03:43:18.910Z,998.86
2018-06-29T03:44:25.416Z,998.87
2018-06-29T03:45:31.928Z,998.87
2018-06-29T03:46:38.456Z,998.82
2018-06-29T03:47:45.463Z,998.74
2018-06-29T03:48:51.674Z,998.77
2018-06-29T03:49:58.008Z,998.78
2018-06-29T03:51:04.506Z,998.82
2018-06-29T03:52:11.035Z,998.83
2018-06-29T03:53:17.534Z,998.83
2018-06-29T03:54:24.059Z,998.81
2018-06-29T03:55:30.568Z,998.79
2018-06-29T03:56:37.101Z,998.91
2018-06-29T03:57:43.614Z,998.88
2018-06-29T03:58:50.127Z,998.78
2018-06-29T03:59:56.635Z,998.78
2018-06-29T04:01:03.153Z,998.79
2018-06-29T04:02:09.685Z,998.83
2018-06-29T04:03:16.244Z,998.79
2018-06-29T04:04:22.725Z,998.83
2018-06-29T04:05:29.232Z,998.76
2018-06-29T04:06:35.755Z,998.74
2018-06-29T04:07:42.284Z,998.74
2018-06-29T04:08:48.890Z,998.70
2018-06-29T04:09:55.322Z,998.72
2018-06-29T04:11:01.831Z,998.79
2018-06-29T04:12:08.363Z,998.76
2018-06-29T04:13:15.372Z,998.83
2018-06-29T04:14:21.394Z,998.77
2018-06-29T04:15:27.921Z,998.87
2018-06-29T04:16:34.454Z,998.80
2018-06-29T04:17:40.970Z,998.86
2018-06-29T04:18:47.485Z,998.83
2018-06-29T04:19:54.007Z,998.87
2018-06-29T04:21:00.521Z,998.95
2018-06-29T04:22:07.042Z,998.87
2018-06-29T04:23:13.574Z,998.88
2018-06-29T04:24:20.092Z,998.91
2018-06-29T04:25:26.611Z,998.88
2018-06-29T04:26:33.200Z,998.92
2018-06-29T04:27:39.660Z,998.87
2018-06-29T04:28:46.189Z,998.90
2018-06-29T04:29:53.194Z,998.93
2018-06-29T04:30:59.224Z,998.93
2018-06-29T04:32:05.746Z,998.93
2018-06-29T04:33:12.280Z,998.91
2018-06-29T04:34:18.884Z,998.90
2018-06-29T04:35:25.326Z,998.91
2018-06-29T04:36:31.863Z,998.90
2018-06-29T04:37:38.382Z,998.87
2018-06-29T04:38:44.926Z,998.89
2018-06-29T04:39:51.447Z,998.87
2018-06-29T04:40:57.995Z,998.91
2018-06-29T04:42:04.530Z,998.93
2018-06-29T04:43:11.068Z,998.94
2018-06-29T04:44:17.610Z,998.96
2018-06-29T04:45:24.146Z,998.86
2018-06-29T04:46:30.708Z,998.87
2018-06-29T04:47:37.249Z,998.91
2018-06-29T04:48:43.821Z,998.92
2018-06-29T04:49:50.354Z,998.92
2018-06-29T04:50:56.908Z,998.97
2018-06-29T04:52:03.485Z,998.98
2018-06-29T04:53:10.023Z,998.98
2018-06-29T04:54:16.591Z,999.00
2018-06-29T04:55:23.134Z,998.93
2018-06-29T04:56:29.693Z,999.01
2018-06-29T04:57:36.257Z,999.02
2018-06-29T04:58:42.837Z,999.00
2018-06-29T04:59:49.372Z,998.85
2018-06-29T05:00:55.978Z,998.93
2018-06-29T05:02:02.512Z,998.97
2018-06-29T05:03:09.062Z,998.91
2018-06-29T05:04:15.636Z,998.89
2018-06-29T05:05:22.192Z,998.90
2018-06-29T05:06:28.769Z,998.98
2018-06-29T05:07:35.337Z,998.91
2018-06-29T05:08:41.910Z,998.86
2018-06-29T05:09:48.487Z,998.90
2018-06-29T05:10:55.045Z,998.85
2018-06-29T05:12:01.625Z,998.89
2018-06-29T05:13:08.196Z,998.93
2018-06-29T05:14:14.898Z,998.94
2018-06-29T05:15:21.339Z,998.90
2018-06-29T05:16:27.917Z,998.92
2018-06-29T05:17:34.507Z,998.97
2018-06-29T05:18:41.088Z,998.93
2018-06-29T05:19:47.689Z,998.96
2018-06-29T05:20:54.751Z,998.97
2018-06-29T05:22:00.850Z,998.95
2018-06-29T05:23:07.456Z,998.95
2018-06-29T05:24:14.045Z,998.97
2018-06-29T05:25:20.656Z,998.91
2018-06-29T05:26:27.245Z,998.91
2018-06-29T05:27:33.863Z,998.94
2018-06-29T05:28:40.495Z,998.95
2018-06-29T05:29:47.071Z,998.93
2018-06-29T05:30:54.666Z,998.93
2018-06-29T05:32:00.281Z,999.01
2018-06-29T05:33:06.895Z,999.00
2018-06-29T05:34:13.492Z,998.92
2018-06-29T05:35:20.106Z,998.90
2018-06-29T05:36:26.697Z,998.93
2018-06-29T05:37:33.284Z,998.90
2018-06-29T05:38:39.887Z,998.88
2018-06-29T05:39:46.484Z,998.89
2018-06-29T05:40:53.067Z,998.88
2018-06-29T05:41:59.664Z,998.86
2018-06-29T05:43:06.244Z,998.90
2018-06-29T05:44:12.833Z,998.90
2018-06-29T05:45:19.435Z,998.89
2018-06-29T05:46:26.073Z,998.85
2018-06-29T05:47:32.592Z,998.89
2018-06-29T05:48:39.174Z,998.93
2018-06-29T05:49:45.772Z,998.83
2018-06-29T05:50:52.352Z,998.95
2018-06-29T05:51:58.922Z,998.91
2018-06-29T05:53:05.563Z,998.89
2018-06-29T05:54:12.084Z,998.89
2018-06-29T05:55:18.671Z,998.88
2018-06-29T05:56:25.255Z,998.91
2018-06-29T05:57:31.896Z,998.89
2018-06-29T05:58:38.410Z,998.89
2018-06-29T05:59:45.019Z,998.92
2018-06-29T06:00:51.564Z,998.94
2018-06-29T06:01:58.201Z,998.93
2018-06-29T06:03:04.727Z,998.90
2018-06-29T06:04:11.297Z,998.86
2018-06-29T06:05:17.892Z,998.85
2018-06-29T06:06:24.453Z,998.88
2018-06-29T06:07:31.037Z,998.84
2018-06-29T06:08:37.615Z,998.86
2018-06-29T06:09:44.207Z,998.93
2018-06-29T06:10:51.776Z,998.89
2018-06-29T06:11:57.360Z,998.86
2018-06-29T06:13:03.934Z,998.85
2018-06-29T06:14:10.520Z,998.87
2018-06-29T06:15:17.112Z,998.81
2018-06-29T06:16:23.669Z,998.82
2018-06-29T06:17:30.251Z,998.79
2018-06-29T06:18:36.830Z,998.83
2018-06-29T06:19:43.412Z,998.82
2018-06-29T06:20:50.007Z,998.83
2018-06-29T06:21:56.635Z,998.81
2018-06-29T06:23:03.466Z,998.84
2018-06-29T06:24:09.757Z,998.90
2018-06-29T06:25:16.325Z,998.89
2018-06-29T06:26:22.930Z,998.89
2018-06-29T06:27:29.493Z,998.86
2018-06-29T06:28:36.081Z,998.79
2018-06-29T06:29:42.668Z,998.79
2018-06-29T06:30:49.264Z,998.84
2018-06-29T06:31:55.842Z,998.83
2018-06-29T06:33:02.452Z,998.82
2018-06-29T06:34:09.036Z,998.80
2018-06-29T06:35:15.629Z,998.75
2018-06-29T06:36:22.227Z,998.84
2018-06-29T06:37:28.900Z,998.82
2018-06-29T06:38:35.422Z,998.80
2018-06-29T06:39:42.011Z,998.81
2018-06-29T06:40:48.623Z,998.80
2018-06-29T06:41:55.216Z,998.88
2018-06-29T06:43:01.835Z,998.87
2018-06-29T06:44:08.440Z,998.90
2018-06-29T06:45:15.049Z,998.84
2018-06-29T06:46:21.693Z,998.84
2018-06-29T06:47:28.281Z,998.90
2018-06-29T06:48:34.901Z,998.93
2018-06-29T06:49:41.519Z,998.93
2018-06-29T06:50:48.143Z,998.85
2018-06-29T06:51:54.766Z,998.84
2018-06-29T06:53:01.393Z,998.87
2018-06-29T06:54:08.007Z,998.81
2018-06-29T06:55:14.638Z,998.88
2018-06-29T06:56:21.289Z,998.83
2018-06-29T06:57:27.917Z,998.88
2018-06-29T06:58:34.612Z,998.88
2018-06-29T06:59:41.187Z,998.78
2018-06-29T07:00:48.548Z,998.81
2018-06-29T07:01:54.478Z,998.79
2018-06-29T07:03:01.106Z,998.72
2018-06-29T07:04:07.748Z,998.75
2018-06-29T07:05:14.393Z,998.93
2018-06-29T07:06:21.035Z,998.84
2018-06-29T07:07:27.678Z,998.84
2018-06-29T07:08:34.316Z,998.83
2018-06-29T07:09:40.975Z,998.79
2018-06-29T07:10:47.631Z,998.81
2018-06-29T07:11:54.272Z,998.77
2018-06-29T07:13:00.924Z,998.82
2018-06-29T07:14:07.577Z,998.88
2018-06-29T07:15:14.236Z,998.90
2018-06-29T07:16:20.887Z,998.87
2018-06-29T07:17:27.542Z,998.83
2018-06-29T07:18:34.189Z,998.82
2018-06-29T07:19:40.850Z,998.81
2018-06-29T07:20:47.543Z,998.82
2018-06-29T07:21:54.173Z,998.74
2018-06-29T07:23:00.831Z,998.83
2018-06-29T07:24:07.495Z,998.74
2018-06-29T07:25:14.161Z,998.77
2018-06-29T07:26:20.822Z,998.73
2018-06-29T07:27:27.485Z,998.72
2018-06-29T07:28:34.148Z,998.80
2018-06-29T07:29:40.812Z,998.71
2018-06-29T07:30:47.474Z,998.73
2018-06-29T07:31:54.143Z,998.78
2018-06-29T07:33:00.800Z,998.65
2018-06-29T07:34:07.478Z,998.71
2018-06-29T07:35:14.149Z,998.80
2018-06-29T07:36:20.813Z,998.82
2018-06-29T07:37:27.498Z,998.76
2018-06-29T07:38:34.209Z,998.81
2018-06-29T07:39:40.849Z,998.71
2018-06-29T07:40:47.521Z,998.69
2018-06-29T07:41:54.286Z,998.62
2018-06-29T07:43:00.894Z,998.62
2018-06-29T07:44:07.580Z,998.61
2018-06-29T07:45:14.263Z,998.68
2018-06-29T07:46:20.954Z,998.67
2018-06-29T07:47:27.652Z,998.62
2018-06-29T07:48:34.348Z,998.67
2018-06-29T07:49:41.033Z,998.62
2018-06-29T07:50:47.718Z,998.59
2018-06-29T07:51:54.417Z,998.72
2018-06-29T07:53:01.122Z,998.71
2018-06-29T07:54:07.899Z,998.82
2018-06-29T07:55:14.535Z,998.65
2018-06-29T07:56:21.235Z,998.68
2018-06-29T07:57:27.940Z,998.67
2018-06-29T07:58:34.725Z,998.66
2018-06-29T07:59:41.343Z,998.61
2018-06-29T08:00:48.051Z,998.61
2018-06-29T08:01:54.758Z,998.64
2018-06-29T08:03:01.563Z,998.65
2018-06-29T08:04:08.163Z,998.70
2018-06-29T08:05:14.874Z,998.60
2018-06-29T08:06:21.589Z,998.65
2018-06-29T08:07:28.298Z,998.68
2018-06-29T08:08:35.018Z,998.67
2018-06-29T08:09:41.725Z,998.80
2018-06-29T08:10:48.451Z,998.76
2018-06-29T08:11:55.166Z,998.72
2018-06-29T08:13:01.906Z,998.75
2018-06-29T08:14:08.619Z,998.72
2018-06-29T08:15:15.337Z,998.66
2018-06-29T08:16:22.054Z,998.68
2018-06-29T08:17:28.787Z,998.71
2018-06-29T08:18:35.492Z,998.66
2018-06-29T08:19:42.197Z,998.67
2018-06-29T08:20:48.972Z,998.64
2018-06-29T08:21:55.631Z,998.73
2018-06-29T08:23:02.356Z,998.64
2018-06-29T08:24:09.075Z,998.63
2018-06-29T08:25:15.894Z,998.55
2018-06-29T08:26:22.502Z,998.59
2018-06-29T08:27:29.231Z,998.66
2018-06-29T08:28:35.964Z,998.64
2018-06-29T08:29:42.694Z,998.64
2018-06-29T08:30:49.399Z,998.57
2018-06-29T08:31:56.111Z,998.61
2018-06-29T08:33:02.838Z,998.60
2018-06-29T08:34:09.576Z,998.63
2018-06-29T08:35:16.296Z,998.60
2018-06-29T08:36:23.033Z,998.60
2018-06-29T08:37:29.775Z,998.60
2018-06-29T08:38:36.542Z,998.67
2018-06-29T08:39:43.249Z,998.55
2018-06-29T08:40:49.985Z,998.62
2018-06-29T08:41:56.706Z,998.59
2018-06-29T08:43:03.451Z,998.60
2018-06-29T08:44:11.226Z,998.59
2018-06-29T08:45:16.938Z,998.61
2018-06-29T08:46:23.671Z,998.63
2018-06-29T08:47:30.412Z,998.59
2018-06-29T08:48:37.173Z,998.59
2018-06-29T08:49:43.998Z,998.59
2018-06-29T08:50:50.663Z,998.53
2018-06-29T08:51:57.430Z,998.53
2018-06-29T08:53:04.162Z,998.54
2018-06-29T08:54:10.927Z,998.52
2018-06-29T08:55:17.670Z,998.53
2018-06-29T08:56:24.426Z,998.49
2018-06-29T08:57:31.194Z,998.49
2018-06-29T08:58:37.962Z,998.49
2018-06-29T08:59:45.712Z,998.53
2018-06-29T09:00:51.472Z,998.48
2018-06-29T09:01:58.229Z,998.47
2018-06-29T09:03:04.999Z,998.42
2018-06-29T09:04:11.772Z,998.45
2018-06-29T09:05:18.527Z,998.48
2018-06-29T09:06:25.285Z,998.48
2018-06-29T09:07:32.057Z,998.46
2018-06-29T09:08:38.833Z,998.43
2018-06-29T09:09:45.604Z,998.41
2018-06-29T09:10:52.438Z,998.39
2018-06-29T09:11:59.164Z,998.38
2018-06-29T09:13:05.933Z,998.38
2018-06-29T09:14:12.702Z,998.32
2018-06-29T09:15:19.492Z,998.33
2018-06-29T09:16:26.274Z,998.39
2018-06-29T09:17:33.054Z,998.35
2018-06-29T09:18:39.859Z,998.33
2018-06-29T09:19:46.629Z,998.32
2018-06-29T09:20:53.450Z,998.32
2018-06-29T09:22:00.221Z,998.34
2018-06-29T09:23:07.009Z,998.35
2018-06-29T09:24:13.891Z,998.34
2018-06-29T09:25:20.600Z,998.27
2018-06-29T09:26:27.362Z,998.28
2018-06-29T09:27:34.135Z,998.26
2018-06-29T09:28:40.912Z,998.21
2018-06-29T09:29:47.692Z,998.23
2018-06-29T09:30:54.495Z,998.22
2018-06-29T09:32:01.239Z,998.13
2018-06-29T09:33:08.025Z,998.16
2018-06-29T09:34:14.794Z,998.10
2018-06-29T09:35:21.567Z,998.11
2018-06-29T09:36:28.464Z,998.05
2018-06-29T09:37:35.130Z,998.13
2018-06-29T09:38:41.906Z,998.14
2018-06-29T09:39:49.682Z,998.11
2018-06-29T09:40:55.486Z,998.12
2018-06-29T09:42:02.247Z,998.06
2018-06-29T09:43:09.018Z,998.11
2018-06-29T09:44:15.891Z,998.12
2018-06-29T09:45:22.589Z,998.15
2018-06-29T09:46:29.372Z,998.06
2018-06-29T09:47:36.164Z,998.04
2018-06-29T09:48:42.921Z,998.04
2018-06-29T09:49:49.722Z,998.06
2018-06-29T09:50:56.497Z,997.97
2018-06-29T09:52:03.274Z,997.93
2018-06-29T09:53:10.040Z,997.99
2018-06-29T09:54:16.817Z,997.94
2018-06-29T09:55:24.595Z,998.01
2018-06-29T09:56:30.395Z,998.01
2018-06-29T09:57:37.151Z,997.98
2018-06-29T09:58:43.926Z,998.01
2018-06-29T09:59:50.703Z,998.01
2018-06-29T10:00:57.520Z,997.99
2018-06-29T10:02:04.276Z,998.03
2018-06-29T10:03:11.057Z,997.99
2018-06-29T10:04:17.856Z,998.00
2018-06-29T10:05:24.630Z,997.95
2018-06-29T10:06:31.441Z,998.01
2018-06-29T10:07:38.214Z,997.99
2018-06-29T10:08:45.011Z,997.94
2018-06-29T10:09:51.791Z,997.90
2018-06-29T10:10:58.593Z,997.98
2018-06-29T10:12:05.384Z,997.94
2018-06-29T10:13:12.177Z,997.93
2018-06-29T10:14:18.985Z,997.92
2018-06-29T10:15:25.764Z,997.95
2018-06-29T10:16:32.573Z,997.86
2018-06-29T10:17:39.356Z,997.94
2018-06-29T10:18:46.163Z,997.87
2018-06-29T10:19:53.110Z,997.91
2018-06-29T10:20:59.736Z,997.87
2018-06-29T10:22:06.546Z,997.89
2018-06-29T10:23:13.328Z,997.89
2018-06-29T10:24:20.196Z,997.90
2018-06-29T10:25:26.965Z,997.86
2018-06-29T10:26:33.746Z,997.88
2018-06-29T10:27:40.535Z,997.91
2018-06-29T10:28:47.340Z,997.90
2018-06-29T10:29:54.135Z,997.84
2018-06-29T10:31:00.957Z,997.87
2018-06-29T10:32:07.736Z,997.82
2018-06-29T10:33:14.532Z,997.84
2018-06-29T10:34:21.333Z,997.83
2018-06-29T10:35:28.154Z,997.83
2018-06-29T10:36:34.958Z,997.84
2018-06-29T10:37:41.769Z,997.79
2018-06-29T10:38:48.631Z,997.87
2018-06-29T10:39:55.373Z,997.87
2018-06-29T10:41:02.193Z,997.79
2018-06-29T10:42:09.022Z,997.87
2018-06-29T10:43:15.895Z,997.83
2018-06-29T10:44:22.624Z,997.86
2018-06-29T10:45:29.436Z,997.82
2018-06-29T10:46:36.257Z,997.88
2018-06-29T10:47:43.076Z,997.81
2018-06-29T10:48:49.891Z,997.77
2018-06-29T10:49:56.703Z,997.79
2018-06-29T10:51:03.533Z,997.74
2018-06-29T10:52:10.550Z,997.73
2018-06-29T10:53:17.171Z,997.72
2018-06-29T10:54:23.994Z,997.75
2018-06-29T10:55:30.812Z,997.73
2018-06-29T10:56:37.649Z,997.73
2018-06-29T10:57:44.480Z,997.75
2018-06-29T10:58:51.326Z,997.69
2018-06-29T10:59:58.134Z,997.68
2018-06-29T11:01:04.960Z,997.61
2018-06-29T11:02:11.802Z,997.60
2018-06-29T11:03:18.642Z,997.63
2018-06-29T11:04:25.497Z,997.57
2018-06-29T11:05:32.347Z,997.65
2018-06-29T11:06:39.236Z,997.53
2018-06-29T11:07:46.215Z,997.59
2018-06-29T11:08:53.272Z,997.61
2018-06-29T11:10:00.402Z,997.61
2018-06-29T11:11:07.595Z,997.56
2018-06-29T11:12:14.876Z,997.64
2018-06-29T11:13:22.230Z,997.63
2018-06-29T11:14:29.615Z,997.61
2018-06-29T11:15:37.074Z,997.62
2018-06-29T11:16:44.589Z,997.57
2018-06-29T11:17:52.125Z,997.56
2018-06-29T11:18:59.699Z,997.54
2018-06-29T11:20:07.322Z,997.59
2018-06-29T11:21:14.964Z,997.54
2018-06-29T11:22:22.659Z,997.53
2018-06-29T11:23:30.386Z,997.52
2018-06-29T11:24:38.120Z,997.52
2018-06-29T11:25:45.887Z,997.47
2018-06-29T11:26:53.688Z,997.47
2018-06-29T11:28:01.525Z,997.56
2018-06-29T11:29:09.371Z,997.50
2018-06-29T11:30:17.267Z,997.46
2018-06-29T11:31:25.119Z,997.45
2018-06-29T11:32:33.033Z,997.49
2018-06-29T11:33:40.966Z,997.41
2018-06-29T11:34:48.893Z,997.37
2018-06-29T11:35:57.023Z,997.32
2018-06-29T11:37:04.887Z,997.33
2018-06-29T11:38:12.773Z,997.39
2018-06-29T11:39:20.740Z,997.34
2018-06-29T11:40:28.729Z,997.35
2018-06-29T11:41:36.729Z,997.34
2018-06-29T11:42:44.732Z,997.31
2018-06-29T11:43:52.748Z,997.27
2018-06-29T11:45:00.773Z,997.29
2018-06-29T11:46:08.896Z,997.30
2018-06-29T11:47:16.903Z,997.27
2018-06-29T11:48:24.851Z,997.31
2018-06-29T11:49:33.901Z,997.20
2018-06-29T11:50:40.978Z,997.23
2018-06-29T11:51:49.032Z,997.24
2018-06-29T11:52:57.112Z,997.23
2018-06-29T11:54:05.221Z,997.27
2018-06-29T11:55:13.310Z,997.28
2018-06-29T11:56:21.423Z,997.22
2018-06-29T11:57:29.556Z,997.21
2018-06-29T11:58:37.684Z,997.18
2018-06-29T11:59:45.822Z,997.19
2018-06-29T12:00:53.963Z,997.15
2018-06-29T12:02:02.107Z,997.13
2018-06-29T12:03:10.254Z,997.16
2018-06-29T12:04:18.417Z,997.12
2018-06-29T12:05:26.570Z,997.01
2018-06-29T12:06:34.728Z,997.05
2018-06-29T12:07:42.887Z,997.05
2018-06-29T12:08:51.074Z,997.04
2018-06-29T12:09:59.259Z,997.14
2018-06-29T12:11:07.456Z,997.01
2018-06-29T12:12:15.891Z,997.09
2018-06-29T12:13:23.880Z,997.07
2018-06-29T12:14:32.107Z,997.04
2018-06-29T12:15:40.336Z,997.09
2018-06-29T12:16:48.606Z,997.06
2018-06-29T12:17:56.815Z,997.06
2018-06-29T12:19:05.078Z,997.04
2018-06-29T12:20:13.321Z,996.97
2018-06-29T12:21:21.578Z,996.97
2018-06-29T12:22:29.836Z,996.94
2018-06-29T12:23:38.105Z,996.96
2018-06-29T12:24:46.385Z,996.95
2018-06-29T12:25:54.648Z,996.91
2018-06-29T12:27:02.920Z,996.96
2018-06-29T12:28:11.188Z,996.95
2018-06-29T12:29:19.456Z,997.00
2018-06-29T12:30:27.691Z,996.93
2018-06-29T12:31:35.952Z,996.87
2018-06-29T12:32:44.689Z,996.90
2018-06-29T12:33:52.408Z,996.91
2018-06-29T12:35:00.649Z,996.86
2018-06-29T12:36:08.863Z,997.01
2018-06-29T12:37:17.092Z,996.98
2018-06-29T12:38:25.294Z,996.87
2018-06-29T12:39:33.527Z,996.86
2018-06-29T12:40:41.712Z,996.91
2018-06-29T12:41:49.923Z,996.91
2018-06-29T12:42:58.119Z,996.88
2018-06-29T12:44:06.324Z,996.88
2018-06-29T12:45:14.508Z,996.85
2018-06-29T12:46:22.681Z,996.91
2018-06-29T12:47:30.867Z,996.84
2018-06-29T12:48:39.042Z,996.79
2018-06-29T12:49:47.209Z,996.84
2018-06-29T12:50:55.374Z,996.84
2018-06-29T12:52:03.535Z,996.82
2018-06-29T12:53:11.681Z,996.72
2018-06-29T12:54:19.832Z,996.71
2018-06-29T12:55:27.985Z,996.71
2018-06-29T12:56:36.129Z,996.65
2018-06-29T12:57:44.304Z,996.68
2018-06-29T12:58:52.387Z,996.63
2018-06-29T13:00:00.527Z,996.62
2018-06-29T13:01:08.650Z,996.61
2018-06-29T13:02:16.807Z,996.61
2018-06-29T13:03:24.947Z,996.59
2018-06-29T13:04:33.083Z,996.63
2018-06-29T13:05:41.303Z,996.55
2018-06-29T13:06:49.402Z,996.59
2018-06-29T13:07:57.566Z,996.56
2018-06-29T13:09:05.742Z,996.55
2018-06-29T13:10:14.919Z,996.59
2018-06-29T13:11:22.099Z,996.51
2018-06-29T13:12:30.245Z,996.51
2018-06-29T13:13:38.395Z,996.53
2018-06-29T13:14:46.535Z,996.49
2018-06-29T13:15:54.686Z,996.48
2018-06-29T13:17:02.891Z,996.47
2018-06-29T13:18:10.942Z,996.40
2018-06-29T13:19:19.058Z,996.48
2018-06-29T13:20:27.189Z,996.41
2018-06-29T13:21:35.340Z,996.28
2018-06-29T13:22:43.438Z,996.39
2018-06-29T13:23:51.565Z,996.36
2018-06-29T13:24:59.746Z,996.38
2018-06-29T13:26:07.811Z,996.35
2018-06-29T13:27:15.909Z,996.28
2018-06-29T13:28:24.078Z,996.30
2018-06-29T13:29:32.132Z,996.37
2018-06-29T13:30:40.230Z,996.27
2018-06-29T13:31:48.332Z,996.28
2018-06-29T13:32:56.412Z,996.36
2018-06-29T13:34:04.482Z,996.31
2018-06-29T13:35:12.543Z,996.20
2018-06-29T13:36:20.611Z,996.27
2018-06-29T13:37:28.645Z,996.25
2018-06-29T13:38:36.688Z,996.28
2018-06-29T13:39:44.727Z,996.19
2018-06-29T13:40:52.780Z,996.10
2018-06-29T13:42:00.806Z,996.22
2018-06-29T13:43:08.827Z,996.18
2018-06-29T13:44:16.841Z,996.22
2018-06-29T13:45:24.860Z,996.18
2018-06-29T13:46:32.899Z,996.22
2018-06-29T13:47:40.928Z,996.17
2018-06-29T13:48:48.950Z,996.15
2018-06-29T13:49:57.994Z,996.13
2018-06-29T13:51:05.056Z,996.18
2018-06-29T13:52:13.109Z,996.15
2018-06-29T13:53:21.170Z,996.12
2018-06-29T13:54:29.219Z,996.16